sensor_id;sensor_type;location;lat;lon;timestamp;P1;durP1;ratioP1;P2;durP2;ratioP2
53688;SDS011;39583;54.682;30.662;2023-02-15T09:20:37;1.13;;;1.02;;
53688;SDS011;39583;54.682;30.662;2023-02-15T09:23:03;1.73;;;1.63;;
53688;SDS011;39583;54.682;30.662;2023-02-15T09:25:29;1.17;;;0.90;;
53688;SDS011;39583;54.682;30.662;2023-02-15T09:27:55;3.25;;;0.70;;
53688;SDS011;39583;54.682;30.662;2023-02-15T09:30:21;6.00;;;1.40;;
53688;SDS011;39583;54.682;30.662;2023-02-15T09:32:47;2.90;;;1.23;;
53688;SDS011;39583;54.682;30.662;2023-02-15T09:35:13;3.65;;;1.08;;
53688;SDS011;39583;54.682;30.662;2023-02-15T09:37:40;1.17;;;1.08;;
53688;SDS011;39583;54.682;30.662;2023-02-15T09:40:06;3.47;;;1.00;;
53688;SDS011;39583;54.682;30.662;2023-02-15T09:45:08;8.23;;;7.70;;
53688;SDS011;39583;54.682;30.662;2023-02-15T09:53:31;2.00;;;1.05;;
53688;SDS011;39583;54.682;30.662;2023-02-15T10:01:18;1.13;;;0.98;;
53688;SDS011;39583;54.682;30.662;2023-02-15T10:03:53;2.17;;;0.90;;
53688;SDS011;39583;54.682;30.662;2023-02-15T10:06:31;5.05;;;1.00;;
53688;SDS011;39583;54.682;30.662;2023-02-15T10:09:25;4.15;;;1.13;;
53688;SDS011;39583;54.682;30.662;2023-02-15T10:28:49;3.72;;;0.90;;
53688;SDS011;39583;54.682;30.662;2023-02-15T10:31:26;2.80;;;0.90;;
53688;SDS011;39583;54.682;30.662;2023-02-15T10:36:36;3.63;;;1.10;;
53688;SDS011;39583;54.682;30.662;2023-02-15T10:39:06;1.38;;;1.10;;
53688;SDS011;39583;54.682;30.662;2023-02-15T10:50:20;3.42;;;1.00;;
53688;SDS011;39583;54.682;30.662;2023-02-15T10:56:00;3.47;;;1.48;;
53688;SDS011;39583;54.682;30.662;2023-02-15T11:06:34;2.67;;;1.40;;
53688;SDS011;39583;54.682;30.662;2023-02-15T11:09:07;1.45;;;1.35;;
53688;SDS011;39583;54.682;30.662;2023-02-15T11:11:37;1.10;;;1.00;;
53688;SDS011;39583;54.682;30.662;2023-02-15T11:17:06;1.27;;;0.85;;
53688;SDS011;39583;54.682;30.662;2023-02-15T11:19:39;2.83;;;1.10;;
53688;SDS011;39583;54.682;30.662;2023-02-15T11:22:15;1.85;;;1.27;;
53688;SDS011;39583;54.682;30.662;2023-02-15T11:24:43;1.60;;;1.45;;
53688;SDS011;39583;54.682;30.662;2023-02-15T11:32:30;1.30;;;1.10;;
53688;SDS011;39583;54.682;30.662;2023-02-15T11:40:34;1.33;;;1.10;;
53688;SDS011;39583;54.682;30.662;2023-02-15T11:45:54;3.90;;;1.33;;
53688;SDS011;39583;54.682;30.662;2023-02-15T11:48:21;3.47;;;2.03;;
53688;SDS011;39583;54.682;30.662;2023-02-15T11:50:47;8.60;;;2.85;;
53688;SDS011;39583;54.682;30.662;2023-02-15T11:53:17;8.80;;;3.83;;
53688;SDS011;39583;54.682;30.662;2023-02-15T12:01:10;4.72;;;1.70;;
53688;SDS011;39583;54.682;30.662;2023-02-15T12:06:04;3.08;;;1.60;;
53688;SDS011;39583;54.682;30.662;2023-02-15T12:08:40;1.47;;;1.30;;
53688;SDS011;39583;54.682;30.662;2023-02-15T12:11:15;3.72;;;2.80;;
53688;SDS011;39583;54.682;30.662;2023-02-15T12:16:24;10.90;;;6.03;;
53688;SDS011;39583;54.682;30.662;2023-02-15T12:18:53;7.65;;;3.55;;
53688;SDS011;39583;54.682;30.662;2023-02-15T12:21:29;4.97;;;3.20;;
53688;SDS011;39583;54.682;30.662;2023-02-15T12:24:18;3.35;;;2.00;;
53688;SDS011;39583;54.682;30.662;2023-02-15T12:29:41;2.60;;;1.10;;
53688;SDS011;39583;54.682;30.662;2023-02-15T12:32:11;3.17;;;1.58;;
53688;SDS011;39583;54.682;30.662;2023-02-15T12:34:45;4.00;;;2.15;;
53688;SDS011;39583;54.682;30.662;2023-02-15T12:37:23;1.98;;;1.45;;
53688;SDS011;39583;54.682;30.662;2023-02-15T12:39:52;4.50;;;1.30;;
53688;SDS011;39583;54.682;30.662;2023-02-15T12:42:20;2.40;;;1.10;;
53688;SDS011;39583;54.682;30.662;2023-02-15T12:44:54;7.82;;;2.08;;
53688;SDS011;39583;54.682;30.662;2023-02-15T12:47:26;4.35;;;2.00;;
53688;SDS011;39583;54.682;30.662;2023-02-15T12:53:05;12.55;;;5.85;;
53688;SDS011;39583;54.682;30.662;2023-02-15T12:55:53;20.48;;;10.98;;
53688;SDS011;39583;54.682;30.662;2023-02-15T12:58:22;19.65;;;8.45;;
53688;SDS011;39583;54.682;30.662;2023-02-15T13:01:12;8.55;;;3.83;;
53688;SDS011;39583;54.682;30.662;2023-02-15T13:04:00;16.48;;;6.78;;
53688;SDS011;39583;54.682;30.662;2023-02-15T13:06:30;9.80;;;4.50;;
53688;SDS011;39583;54.682;30.662;2023-02-15T13:09:05;18.73;;;7.95;;
53688;SDS011;39583;54.682;30.662;2023-02-15T13:11:44;12.00;;;5.22;;
53688;SDS011;39583;54.682;30.662;2023-02-15T13:16:50;6.57;;;3.60;;
53688;SDS011;39583;54.682;30.662;2023-02-15T13:21:55;1.92;;;1.35;;
53688;SDS011;39583;54.682;30.662;2023-02-15T13:24:24;3.78;;;1.23;;
53688;SDS011;39583;54.682;30.662;2023-02-15T13:26:56;1.80;;;1.23;;
53688;SDS011;39583;54.682;30.662;2023-02-15T13:29:25;3.80;;;1.00;;
53688;SDS011;39583;54.682;30.662;2023-02-15T13:31:57;1.27;;;1.00;;
53688;SDS011;39583;54.682;30.662;2023-02-15T13:34:30;1.67;;;1.02;;
53688;SDS011;39583;54.682;30.662;2023-02-15T13:42:40;4.45;;;2.05;;
53688;SDS011;39583;54.682;30.662;2023-02-15T13:45:26;3.45;;;2.15;;
53688;SDS011;39583;54.682;30.662;2023-02-15T14:10:03;4.55;;;1.48;;
53688;SDS011;39583;54.682;30.662;2023-02-15T14:13:16;4.45;;;1.70;;
53688;SDS011;39583;54.682;30.662;2023-02-15T14:21:35;3.65;;;1.48;;
53688;SDS011;39583;54.682;30.662;2023-02-15T14:24:37;2.40;;;1.30;;
53688;SDS011;39583;54.682;30.662;2023-02-15T14:29:46;3.43;;;1.63;;
53688;SDS011;39583;54.682;30.662;2023-02-15T14:32:39;2.60;;;1.60;;
53688;SDS011;39583;54.682;30.662;2023-02-15T14:35:17;7.20;;;1.93;;
53688;SDS011;39583;54.682;30.662;2023-02-15T14:40:48;2.88;;;1.73;;
53688;SDS011;39583;54.682;30.662;2023-02-15T14:49:12;5.65;;;1.45;;
53688;SDS011;39583;54.682;30.662;2023-02-15T14:57:20;2.53;;;1.50;;
53688;SDS011;39583;54.682;30.662;2023-02-15T15:02:19;6.10;;;1.88;;
53688;SDS011;39583;54.682;30.662;2023-02-15T15:05:01;2.55;;;1.30;;
53688;SDS011;39583;54.682;30.662;2023-02-15T15:07:44;3.70;;;1.48;;
53688;SDS011;39583;54.682;30.662;2023-02-15T15:18:07;3.90;;;1.80;;
53688;SDS011;39583;54.682;30.662;2023-02-15T15:20:57;3.58;;;1.42;;
53688;SDS011;39583;54.682;30.662;2023-02-15T15:26:21;5.78;;;2.55;;
53688;SDS011;39583;54.682;30.662;2023-02-15T15:31:24;4.78;;;2.40;;
53688;SDS011;39583;54.682;30.662;2023-02-15T15:34:12;6.25;;;1.98;;
53688;SDS011;39583;54.682;30.662;2023-02-15T15:42:29;3.50;;;2.30;;
53688;SDS011;39583;54.682;30.662;2023-02-15T15:50:56;3.28;;;1.80;;
53688;SDS011;39583;54.682;30.662;2023-02-15T15:53:27;5.15;;;2.03;;
53688;SDS011;39583;54.682;30.662;2023-02-15T15:55:59;4.88;;;1.73;;
53688;SDS011;39583;54.682;30.662;2023-02-15T15:58:29;3.25;;;1.50;;
53688;SDS011;39583;54.682;30.662;2023-02-15T16:01:09;5.60;;;1.65;;
53688;SDS011;39583;54.682;30.662;2023-02-15T16:03:51;3.08;;;1.58;;
53688;SDS011;39583;54.682;30.662;2023-02-15T16:09:12;10.05;;;3.30;;
53688;SDS011;39583;54.682;30.662;2023-02-15T16:11:39;4.30;;;2.50;;
53688;SDS011;39583;54.682;30.662;2023-02-15T16:14:13;7.53;;;1.92;;
53688;SDS011;39583;54.682;30.662;2023-02-15T16:16:45;3.30;;;1.75;;
53688;SDS011;39583;54.682;30.662;2023-02-15T16:19:19;2.00;;;1.20;;
53688;SDS011;39583;54.682;30.662;2023-02-15T16:21:52;4.07;;;2.05;;
53688;SDS011;39583;54.682;30.662;2023-02-15T16:24:24;3.70;;;1.55;;
53688;SDS011;39583;54.682;30.662;2023-02-15T16:29:48;2.25;;;1.17;;
53688;SDS011;39583;54.682;30.662;2023-02-15T16:32:16;4.97;;;1.20;;
53688;SDS011;39583;54.682;30.662;2023-02-15T16:34:58;5.30;;;1.92;;
53688;SDS011;39583;54.682;30.662;2023-02-15T16:37:27;2.90;;;0.98;;
53688;SDS011;39583;54.682;30.662;2023-02-15T16:39:58;2.35;;;1.00;;
53688;SDS011;39583;54.682;30.662;2023-02-15T16:42:25;2.83;;;1.10;;
53688;SDS011;39583;54.682;30.662;2023-02-15T16:44:53;2.00;;;0.93;;
53688;SDS011;39583;54.682;30.662;2023-02-15T16:49:54;1.95;;;1.15;;
53688;SDS011;39583;54.682;30.662;2023-02-15T16:52:25;5.03;;;1.05;;
53688;SDS011;39583;54.682;30.662;2023-02-15T16:54:57;2.35;;;0.90;;
53688;SDS011;39583;54.682;30.662;2023-02-15T16:57:27;2.10;;;0.95;;
53688;SDS011;39583;54.682;30.662;2023-02-15T17:00:17;1.38;;;0.90;;
53688;SDS011;39583;54.682;30.662;2023-02-15T17:03:02;1.83;;;1.00;;
53688;SDS011;39583;54.682;30.662;2023-02-15T17:05:42;2.65;;;1.15;;
53688;SDS011;39583;54.682;30.662;2023-02-15T17:10:41;4.18;;;1.25;;
53688;SDS011;39583;54.682;30.662;2023-02-15T17:13:14;5.55;;;1.23;;
53688;SDS011;39583;54.682;30.662;2023-02-15T17:16:27;2.08;;;1.40;;
53688;SDS011;39583;54.682;30.662;2023-02-15T17:18:43;2.35;;;0.93;;
53688;SDS011;39583;54.682;30.662;2023-02-15T17:23:50;1.90;;;0.82;;
53688;SDS011;39583;54.682;30.662;2023-02-15T17:26:23;2.28;;;0.80;;
53688;SDS011;39583;54.682;30.662;2023-02-15T17:28:53;2.22;;;1.10;;
53688;SDS011;39583;54.682;30.662;2023-02-15T17:31:25;4.00;;;0.70;;
53688;SDS011;39583;54.682;30.662;2023-02-15T17:33:55;1.10;;;0.90;;
53688;SDS011;39583;54.682;30.662;2023-02-15T17:36:24;2.63;;;0.90;;
53688;SDS011;39583;54.682;30.662;2023-02-15T17:41:24;2.92;;;1.00;;
53688;SDS011;39583;54.682;30.662;2023-02-15T17:43:54;2.63;;;1.13;;
53688;SDS011;39583;54.682;30.662;2023-02-15T17:46:21;2.85;;;1.10;;
53688;SDS011;39583;54.682;30.662;2023-02-15T17:48:48;5.05;;;1.30;;
53688;SDS011;39583;54.682;30.662;2023-02-15T17:51:20;4.10;;;1.23;;
53688;SDS011;39583;54.682;30.662;2023-02-15T17:53:47;1.58;;;0.82;;
53688;SDS011;39583;54.682;30.662;2023-02-15T17:56:32;1.63;;;0.75;;
53688;SDS011;39583;54.682;30.662;2023-02-15T17:58:59;3.85;;;1.38;;
53688;SDS011;39583;54.682;30.662;2023-02-15T18:01:26;2.15;;;1.10;;
53688;SDS011;39583;54.682;30.662;2023-02-15T18:04:11;2.70;;;1.13;;
53688;SDS011;39583;54.682;30.662;2023-02-15T18:06:57;1.90;;;1.25;;
53688;SDS011;39583;54.682;30.662;2023-02-15T18:09:42;2.78;;;1.27;;
53688;SDS011;39583;54.682;30.662;2023-02-15T18:12:28;2.08;;;1.10;;
53688;SDS011;39583;54.682;30.662;2023-02-15T18:14:56;0.68;;;0.65;;
53688;SDS011;39583;54.682;30.662;2023-02-15T18:17:29;3.20;;;1.45;;
53688;SDS011;39583;54.682;30.662;2023-02-15T18:20:00;3.20;;;0.90;;
53688;SDS011;39583;54.682;30.662;2023-02-15T18:22:31;5.32;;;1.08;;
53688;SDS011;39583;54.682;30.662;2023-02-15T18:24:58;3.80;;;0.90;;
53688;SDS011;39583;54.682;30.662;2023-02-15T18:27:24;4.20;;;1.25;;
53688;SDS011;39583;54.682;30.662;2023-02-15T18:29:51;2.10;;;0.90;;
53688;SDS011;39583;54.682;30.662;2023-02-15T18:32:26;1.83;;;1.27;;
53688;SDS011;39583;54.682;30.662;2023-02-15T18:34:58;1.33;;;0.80;;
53688;SDS011;39583;54.682;30.662;2023-02-15T18:37:25;5.72;;;1.13;;
53688;SDS011;39583;54.682;30.662;2023-02-15T18:39:54;2.10;;;1.08;;
53688;SDS011;39583;54.682;30.662;2023-02-15T18:42:27;2.15;;;0.88;;
53688;SDS011;39583;54.682;30.662;2023-02-15T18:45:14;2.63;;;1.42;;
53688;SDS011;39583;54.682;30.662;2023-02-15T18:47:44;3.75;;;1.00;;
